createdAt,value
2017-01-08T09:01:15.502Z,16
2017-01-08T09:02:26.819Z,15.96
2017-01-08T09:03:38.140Z,15.9
2017-01-08T09:04:49.049Z,15.93
2017-01-08T09:06:00.426Z,15.97
2017-01-08T09:07:11.752Z,15.97
2017-01-08T09:08:22.648Z,16.08
2017-01-08T09:09:33.970Z,16.01
2017-01-08T09:10:45.303Z,16.01
2017-01-08T09:11:56.244Z,15.94
2017-01-08T09:13:07.785Z,15.97
2017-01-08T09:14:19.111Z,15.97
2017-01-08T09:15:30.020Z,16.05
2017-01-08T09:16:40.492Z,15.94
2017-01-08T09:17:51.446Z,16.04
2017-01-08T09:19:02.817Z,16
2017-01-08T09:20:13.289Z,16.04
2017-01-08T09:21:24.197Z,16.09
2017-01-08T09:22:35.527Z,16.15
2017-01-08T09:23:46.912Z,16.12
2017-01-08T09:24:57.813Z,16.05
2017-01-08T09:26:08.771Z,16.14
2017-01-08T09:27:19.740Z,16.11
2017-01-08T09:28:30.641Z,16.17
2017-01-08T09:29:41.158Z,16.21
2017-01-08T09:30:52.060Z,16.23
2017-01-08T09:32:02.973Z,16.2
2017-01-08T09:33:13.874Z,16.17
2017-01-08T09:34:24.343Z,16.2
2017-01-08T09:35:35.709Z,16.25
2017-01-08T09:36:46.602Z,16.17
2017-01-08T09:37:57.507Z,16.24
2017-01-08T09:39:07.976Z,16.2
2017-01-08T09:40:18.881Z,16.27
2017-01-08T09:41:29.934Z,16.39
2017-01-08T09:42:40.840Z,16.31
2017-01-08T09:43:51.783Z,16.34
2017-01-08T09:45:02.682Z,16.3
2017-01-08T09:46:14.004Z,16.34
2017-01-08T09:47:25.381Z,16.39
2017-01-08T09:48:36.706Z,16.38
2017-01-08T09:49:47.611Z,16.39
2017-01-08T09:50:58.509Z,16.42
2017-01-08T09:52:09.842Z,16.38
2017-01-08T09:53:20.783Z,16.41
2017-01-08T09:54:31.680Z,16.39
2017-01-08T09:55:43.013Z,16.42
2017-01-08T09:56:54.339Z,16.43
2017-01-08T09:58:05.668Z,16.38
2017-01-08T09:59:16.617Z,16.46
2017-01-08T10:00:27.530Z,16.46
2017-01-08T10:01:38.852Z,16.45
2017-01-08T10:02:49.752Z,16.48
2017-01-08T10:04:01.070Z,16.49
2017-01-08T10:05:12.451Z,16.39
2017-01-08T10:06:23.780Z,15.94
2017-01-08T10:07:35.105Z,15.49
2017-01-08T10:08:45.998Z,15.14
2017-01-08T10:09:57.335Z,14.78
2017-01-08T10:11:08.717Z,14.42
2017-01-08T10:12:19.622Z,13.99
2017-01-08T10:13:30.519Z,13.7
2017-01-08T10:14:40.988Z,13.38
2017-01-08T10:15:52.309Z,13.25
2017-01-08T10:17:03.322Z,13.54
2017-01-08T10:18:13.848Z,13.79
2017-01-08T10:19:25.184Z,14
2017-01-08T10:20:36.505Z,14.18
2017-01-08T10:21:46.987Z,14.46
2017-01-08T10:22:57.920Z,14.61
2017-01-08T10:24:08.869Z,14.73
2017-01-08T10:25:19.766Z,14.88
2017-01-08T10:26:31.515Z,14.94
2017-01-08T10:27:42.192Z,15.07
2017-01-08T10:28:53.250Z,15.17
2017-01-08T10:30:04.651Z,15.14
2017-01-08T10:31:15.016Z,15.32
2017-01-08T10:32:26.681Z,15.31
2017-01-08T10:33:38.086Z,15.47
2017-01-08T10:34:49.100Z,15.54
2017-01-08T10:36:00.809Z,15.67
2017-01-08T10:37:11.386Z,15.62
2017-01-08T10:38:24.232Z,15.68
2017-01-08T10:39:36.488Z,15.83
2017-01-08T10:40:48.347Z,15.87
2017-01-08T10:41:59.863Z,15.83
2017-01-08T10:43:13.168Z,15.94
2017-01-08T10:44:25.509Z,15.93
2017-01-08T10:45:39.610Z,15.94
2017-01-08T10:46:52.340Z,16.02
2017-01-08T10:48:03.797Z,16
2017-01-08T10:49:15.674Z,16.09
2017-01-08T10:50:27.003Z,16.08
2017-01-08T10:51:38.165Z,16.09
2017-01-08T10:52:49.778Z,16.2
2017-01-08T10:54:00.755Z,16.2
2017-01-08T10:55:12.092Z,16.2
2017-01-08T10:56:23.417Z,16.24
2017-01-08T10:57:34.114Z,16.2
2017-01-08T10:58:45.056Z,16.25
2017-01-08T10:59:56.077Z,16.33
2017-01-08T11:01:06.862Z,16.3
2017-01-08T11:02:18.187Z,16.38
2017-01-08T11:03:29.329Z,16.48
2017-01-08T11:04:40.378Z,16.34
2017-01-08T11:05:50.871Z,16.41
2017-01-08T11:07:01.768Z,16.39
2017-01-08T11:08:11.814Z,16.52
2017-01-08T11:09:22.499Z,16.67
2017-01-08T11:10:33.012Z,16.66
2017-01-08T11:11:43.481Z,16.68
2017-01-08T11:12:54.407Z,16.76
2017-01-08T11:14:05.304Z,16.83
2017-01-08T11:15:16.205Z,16.94
2017-01-08T11:16:27.158Z,16.98
2017-01-08T11:17:38.048Z,17.07
2017-01-08T11:18:49.373Z,17.11
2017-01-08T11:20:00.706Z,17.19
2017-01-08T11:21:11.611Z,17.3
2017-01-08T11:22:22.560Z,17.25
2017-01-08T11:23:33.889Z,17.33
2017-01-08T11:24:45.227Z,17.37
2017-01-08T11:25:56.152Z,17.41
2017-01-08T11:27:07.049Z,17.48
2017-01-08T11:28:18.430Z,17.52
2017-01-08T11:29:29.332Z,17.56
2017-01-08T11:30:40.661Z,17.62
2017-01-08T11:31:51.990Z,17.74
2017-01-08T11:33:03.312Z,17.86
2017-01-08T11:34:14.265Z,17.93
2017-01-08T11:35:24.750Z,17.87
2017-01-08T11:36:36.075Z,17.93
2017-01-08T11:37:46.976Z,18.05
2017-01-08T11:38:57.874Z,18.03
2017-01-08T11:40:09.259Z,18.05
2017-01-08T11:41:20.592Z,18.14
2017-01-08T11:42:31.920Z,18.12
2017-01-08T11:43:42.815Z,18.23
2017-01-08T11:44:53.708Z,18.2
2017-01-08T11:46:04.657Z,18.23
2017-01-08T11:47:15.558Z,18.35
2017-01-08T11:48:26.455Z,18.33
2017-01-08T11:49:37.364Z,18.45
2017-01-08T11:50:49.358Z,18.47
2017-01-08T11:52:00.319Z,18.55
2017-01-08T11:53:11.220Z,18.52
2017-01-08T11:54:22.294Z,18.62
2017-01-08T11:55:33.395Z,18.55
2017-01-08T11:56:44.428Z,18.57
2017-01-08T11:57:56.362Z,18.58
2017-01-08T11:59:08.058Z,18.69
2017-01-08T12:00:19.556Z,18.75
2017-01-08T12:01:30.377Z,18.87
2017-01-08T12:02:41.286Z,18.78
2017-01-08T12:03:52.284Z,18.78
2017-01-08T12:05:04.061Z,18.81
2017-01-08T12:06:15.246Z,18.87
2017-01-08T12:07:26.031Z,18.91
2017-01-08T12:08:36.496Z,19.08
2017-01-08T12:09:47.446Z,19.14
2017-01-08T12:10:58.391Z,19.1
2017-01-08T12:12:09.928Z,19.14
2017-01-08T12:13:20.293Z,19.21
2017-01-08T12:14:31.198Z,19.31
2017-01-08T12:15:42.148Z,19.28
2017-01-08T12:16:53.053Z,19.28
2017-01-08T12:18:03.967Z,19.25
2017-01-08T12:19:15.299Z,19.31
2017-01-08T12:20:26.200Z,19.29
2017-01-08T12:21:38.638Z,19.4
2017-01-08T12:22:49.539Z,19.36
2017-01-08T12:24:00.452Z,19.29
2017-01-08T12:25:11.358Z,19.44
2017-01-08T12:26:22.267Z,19.37
2017-01-08T12:27:33.232Z,19.33
2017-01-08T12:28:44.562Z,19.37
2017-01-08T12:29:55.455Z,19.32
2017-01-08T12:31:05.944Z,19.28
2017-01-08T12:32:16.849Z,19.36
2017-01-08T12:33:27.802Z,19.32
2017-01-08T12:34:39.160Z,19.32
2017-01-08T12:35:50.493Z,19.25
2017-01-08T12:37:01.402Z,19.29
2017-01-08T12:38:12.743Z,19.23
2017-01-08T12:39:23.720Z,19.23
2017-01-08T12:40:35.042Z,19.25
2017-01-08T12:41:45.943Z,19.28
2017-01-08T12:42:56.852Z,19.19
2017-01-08T12:44:08.185Z,19.16
2017-01-08T12:45:19.143Z,19.18
2017-01-08T12:46:30.048Z,19.04
2017-01-08T12:47:41.386Z,19.07
2017-01-08T12:48:52.718Z,19.02
2017-01-08T12:50:03.616Z,19.02
2017-01-08T12:51:14.593Z,18.99
2017-01-08T12:52:25.490Z,19
2017-01-08T12:53:36.387Z,19.06
2017-01-08T12:54:47.309Z,18.94
2017-01-08T12:55:58.218Z,18.94
2017-01-08T12:57:09.599Z,18.91
2017-01-08T12:58:20.928Z,18.98
2017-01-08T12:59:31.825Z,18.91
2017-01-08T13:00:42.303Z,18.87
2017-01-08T13:01:53.628Z,18.82
2017-01-08T13:03:04.585Z,18.76
2017-01-08T13:04:15.906Z,18.82
2017-01-08T13:05:26.811Z,18.8
2017-01-08T13:06:38.145Z,18.84
2017-01-08T13:07:49.042Z,18.78
2017-01-08T13:08:59.995Z,18.76
2017-01-08T13:10:10.896Z,18.78
2017-01-08T13:11:21.837Z,18.78
2017-01-08T13:12:34.494Z,18.8
2017-01-08T13:13:45.804Z,18.8
2017-01-08T13:14:57.925Z,18.76
2017-01-08T13:16:08.826Z,18.75
2017-01-08T13:17:19.732Z,18.73
2017-01-08T13:18:30.221Z,18.82
2017-01-08T13:19:41.134Z,18.94
2017-01-08T13:20:52.519Z,18.98
2017-01-08T13:22:03.848Z,19.02
2017-01-08T13:23:14.741Z,19.02
2017-01-08T13:24:26.075Z,19.13
2017-01-08T13:25:36.988Z,19.06
2017-01-08T13:26:48.385Z,19.13
2017-01-08T13:27:59.706Z,19.19
2017-01-08T13:29:10.608Z,19.16
2017-01-08T13:30:21.513Z,19.29
2017-01-08T13:31:32.834Z,19.32
2017-01-08T13:32:43.487Z,19.23
2017-01-08T13:33:54.924Z,19.43
2017-01-08T13:35:05.565Z,19.36
2017-01-08T13:36:16.486Z,19.5
2017-01-08T13:37:27.271Z,19.47
2017-01-08T13:38:37.801Z,19.48
2017-01-08T13:39:48.954Z,19.5
2017-01-08T13:40:59.311Z,19.61
2017-01-08T13:42:10.212Z,19.61
2017-01-08T13:43:21.330Z,19.51
2017-01-08T13:44:31.755Z,19.68
2017-01-08T13:45:42.656Z,19.65
2017-01-08T13:46:53.349Z,19.73
2017-01-08T13:48:04.254Z,19.73
2017-01-08T13:49:15.156Z,19.81
2017-01-08T13:50:26.321Z,19.88
2017-01-08T13:51:37.331Z,19.84
2017-01-08T13:52:48.859Z,19.83
2017-01-08T13:53:59.984Z,19.96
2017-01-08T13:55:11.314Z,19.98
2017-01-08T13:56:22.335Z,20.01
2017-01-08T13:57:33.264Z,20.03
2017-01-08T13:58:44.585Z,20.05
2017-01-08T13:59:55.530Z,20.1
2017-01-08T14:01:06.847Z,19.99
2017-01-08T14:02:17.372Z,20.08
2017-01-08T14:03:28.262Z,20.14
2017-01-08T14:04:39.611Z,20.05
2017-01-08T14:05:50.112Z,20.11
2017-01-08T14:07:01.441Z,20.1
2017-01-08T14:08:12.510Z,20.1
2017-01-08T14:09:22.984Z,20.18
2017-01-08T14:10:34.317Z,20.11
2017-01-08T14:11:44.798Z,20.16
2017-01-08T14:12:55.707Z,20.17
2017-01-08T14:14:07.084Z,20.23
2017-01-08T14:15:17.998Z,20.21
2017-01-08T14:16:29.315Z,20.18
2017-01-08T14:17:40.228Z,20.23
2017-01-08T14:18:51.557Z,20.13
2017-01-08T14:20:02.938Z,20.18
2017-01-08T14:21:14.264Z,20.21
2017-01-08T14:22:24.737Z,20.17
2017-01-08T14:23:35.643Z,20.23
2017-01-08T14:24:46.971Z,20.21
2017-01-08T14:25:58.349Z,20.23
2017-01-08T14:27:09.689Z,20.13
2017-01-08T14:28:20.583Z,20.16
2017-01-08T14:29:31.492Z,20.14
2017-01-08T14:30:42.401Z,20.11
2017-01-08T14:31:53.786Z,20.11
2017-01-08T14:33:05.128Z,20.06
2017-01-08T14:34:16.028Z,20.06
2017-01-08T14:35:26.934Z,20.13
2017-01-08T14:36:37.835Z,20.06
2017-01-08T14:37:48.412Z,20.05
2017-01-08T14:38:59.310Z,20.06
2017-01-08T14:40:10.207Z,20.08
2017-01-08T14:41:21.551Z,20.01
2017-01-08T14:42:31.805Z,20.02
2017-01-08T14:43:43.310Z,20.02
2017-01-08T14:44:53.799Z,19.99
2017-01-08T14:46:05.244Z,20.01
2017-01-08T14:47:16.042Z,19.96
2017-01-08T14:48:25.867Z,19.92
2017-01-08T14:49:36.252Z,19.86
2017-01-08T14:50:47.493Z,19.83
2017-01-08T14:51:58.250Z,19.83
2017-01-08T14:53:08.059Z,19.8
2017-01-08T14:54:18.816Z,19.73
2017-01-08T14:55:28.725Z,19.68
2017-01-08T14:56:40.046Z,19.71
2017-01-08T14:57:51.367Z,19.66
2017-01-08T14:59:02.260Z,19.71
2017-01-08T15:00:13.185Z,19.56
2017-01-08T15:01:24.131Z,19.56
2017-01-08T15:02:35.032Z,19.58
2017-01-08T15:03:46.365Z,19.47
2017-01-08T15:04:57.262Z,19.5
2017-01-08T15:06:08.167Z,19.58
2017-01-08T15:07:19.552Z,19.48
2017-01-08T15:08:30.441Z,19.44
2017-01-08T15:09:41.767Z,19.46
2017-01-08T15:10:52.667Z,19.32
2017-01-08T15:12:04.005Z,19.44
2017-01-08T15:13:15.082Z,19.37
2017-01-08T15:14:25.971Z,19.37
2017-01-08T15:15:37.288Z,19.28
2017-01-08T15:16:48.197Z,19.28
2017-01-08T15:17:58.682Z,19.29
2017-01-08T15:19:09.635Z,19.23
2017-01-08T15:20:20.952Z,19.22
2017-01-08T15:21:31.957Z,19.32
2017-01-08T15:22:43.395Z,19.31
2017-01-08T15:23:54.139Z,19.23
2017-01-08T15:25:05.361Z,19.28
2017-01-08T15:26:16.049Z,19.33
2017-01-08T15:27:26.710Z,19.26
2017-01-08T15:28:37.288Z,19.22
2017-01-08T15:29:48.044Z,19.33
2017-01-08T15:30:59.757Z,19.23
2017-01-08T15:32:10.663Z,19.31
2017-01-08T15:33:21.564Z,19.29
2017-01-08T15:34:32.330Z,19.29
2017-01-08T15:35:43.662Z,19.28
2017-01-08T15:36:54.863Z,19.29
2017-01-08T15:38:06.188Z,19.22
2017-01-08T15:39:16.804Z,19.36
2017-01-08T15:40:27.750Z,19.36
2017-01-08T15:41:39.071Z,19.43
2017-01-08T15:42:50.084Z,19.44
2017-01-08T15:44:01.041Z,19.39
2017-01-08T15:45:12.378Z,19.32
2017-01-08T15:46:23.551Z,19.37
2017-01-08T15:47:34.448Z,19.36
2017-01-08T15:48:45.406Z,19.44
2017-01-08T15:49:56.735Z,19.25
2017-01-08T15:51:08.059Z,19.22
2017-01-08T15:52:19.388Z,19.29
2017-01-08T15:53:30.489Z,19.33
2017-01-08T15:54:41.687Z,19.28
2017-01-08T15:55:52.611Z,19.33
2017-01-08T15:57:03.501Z,19.26
2017-01-08T15:58:14.834Z,19.19
2017-01-08T15:59:26.155Z,19.31
2017-01-08T16:00:37.628Z,19.26
2017-01-08T16:01:48.957Z,19.21
2017-01-08T16:02:59.858Z,19.22
2017-01-08T16:04:10.964Z,19.26
2017-01-08T16:05:21.861Z,19.23
2017-01-08T16:06:32.807Z,19.18
2017-01-08T16:07:44.131Z,19.25
2017-01-08T16:08:55.113Z,19.19
2017-01-08T16:10:06.440Z,19.13
2017-01-08T16:11:17.341Z,19.21
2017-01-08T16:12:28.308Z,19.14
2017-01-08T16:13:39.721Z,19.11
2017-01-08T16:14:50.170Z,19.19
2017-01-08T16:16:00.424Z,19.19
2017-01-08T16:17:11.757Z,19.08
2017-01-08T16:18:23.134Z,19.08
2017-01-08T16:19:33.627Z,19.1
2017-01-08T16:20:44.812Z,19.16
2017-01-08T16:21:55.718Z,19.1
2017-01-08T16:23:06.643Z,19.04
2017-01-08T16:24:18.104Z,19.11
2017-01-08T16:25:29.009Z,19.07
2017-01-08T16:26:40.339Z,19.07
2017-01-08T16:27:51.236Z,19.08
2017-01-08T16:29:02.693Z,19.07
2017-01-08T16:30:14.570Z,19.08
2017-01-08T16:31:25.659Z,19.08
2017-01-08T16:32:36.989Z,19.08
2017-01-08T16:33:47.970Z,19.11
2017-01-08T16:34:59.099Z,19.06
2017-01-08T16:36:10.192Z,19.07
2017-01-08T16:37:21.094Z,19.08
2017-01-08T16:38:34.395Z,19.13
2017-01-08T16:39:45.884Z,19.19
2017-01-08T16:40:57.213Z,19.11
2017-01-08T16:42:08.359Z,19.06
2017-01-08T16:43:19.576Z,19.18
2017-01-08T16:44:31.133Z,19.11
2017-01-08T16:45:42.390Z,19.04
2017-01-08T16:46:53.835Z,19.04
2017-01-08T16:48:05.209Z,19.02
2017-01-08T16:49:16.305Z,19.11
2017-01-08T16:50:27.203Z,19.07
2017-01-08T16:51:37.702Z,19.07
2017-01-08T16:52:48.394Z,19.02
2017-01-08T16:53:59.763Z,19.11
2017-01-08T16:55:11.300Z,19.08
2017-01-08T16:56:21.518Z,19.02
2017-01-08T16:57:31.995Z,19.07
2017-01-08T16:58:42.804Z,19
2017-01-08T16:59:54.557Z,18.99
2017-01-08T17:01:05.458Z,19.02
2017-01-08T17:02:16.495Z,19.02
2017-01-08T17:03:27.600Z,19.07
2017-01-08T17:04:38.594Z,19.02
2017-01-08T17:05:50.003Z,19
2017-01-08T17:07:00.992Z,19.04
2017-01-08T17:08:11.594Z,19.02
2017-01-08T17:09:22.619Z,19.02
2017-01-08T17:10:33.639Z,19.02
2017-01-08T17:11:44.269Z,19.06
2017-01-08T17:12:54.938Z,18.98
2017-01-08T17:14:06.283Z,19
2017-01-08T17:15:16.752Z,19.04
2017-01-08T17:16:28.073Z,18.98
2017-01-08T17:17:38.883Z,19.02
2017-01-08T17:18:50.320Z,18.99
2017-01-08T17:20:01.657Z,18.99
2017-01-08T17:21:12.601Z,18.91
2017-01-08T17:22:23.535Z,18.9
2017-01-08T17:23:34.816Z,18.99
2017-01-08T17:24:45.302Z,18.99
2017-01-08T17:25:56.599Z,18.94
2017-01-08T17:27:07.496Z,18.95
2017-01-08T17:28:18.681Z,18.95
2017-01-08T17:29:31.110Z,18.95
2017-01-08T17:30:42.220Z,18.95
2017-01-08T17:31:54.365Z,18.92
2017-01-08T17:33:05.103Z,18.88
2017-01-08T17:34:16.066Z,18.98
2017-01-08T17:35:27.633Z,18.91
2017-01-08T17:36:38.894Z,18.91
2017-01-08T17:37:51.183Z,18.88
2017-01-08T17:39:02.753Z,18.94
2017-01-08T17:40:13.906Z,18.94
2017-01-08T17:41:24.751Z,18.87
2017-01-08T17:42:35.357Z,18.94
2017-01-08T17:43:46.746Z,18.9
2017-01-08T17:44:58.383Z,18.9
2017-01-08T17:46:10.840Z,18.99
2017-01-08T17:47:21.797Z,18.91
2017-01-08T17:48:32.711Z,18.88
2017-01-08T17:49:44.047Z,18.92
2017-01-08T17:50:54.949Z,19.02
2017-01-08T17:52:06.262Z,19
2017-01-08T17:53:17.407Z,18.94
2017-01-08T17:54:28.589Z,18.95
2017-01-08T17:55:39.678Z,18.94
2017-01-08T17:56:50.563Z,18.85
2017-01-08T17:58:02.748Z,18.94
2017-01-08T17:59:14.726Z,18.94
2017-01-08T18:00:25.627Z,18.91
2017-01-08T18:01:36.532Z,18.98
2017-01-08T18:02:47.433Z,18.9
2017-01-08T18:03:58.303Z,18.98
2017-01-08T18:05:09.697Z,18.92
2017-01-08T18:06:20.169Z,18.91
2017-01-08T18:07:31.070Z,18.94
2017-01-08T18:08:42.404Z,18.99
2017-01-08T18:09:53.313Z,18.9
2017-01-08T18:11:05.122Z,18.92
2017-01-08T18:12:16.447Z,18.9
2017-01-08T18:13:27.557Z,18.91
2017-01-08T18:14:38.609Z,18.9
2017-01-08T18:15:49.275Z,18.9
2017-01-08T18:17:01.728Z,18.9
2017-01-08T18:18:13.049Z,18.94
2017-01-08T18:19:25.207Z,18.92
2017-01-08T18:20:36.252Z,18.82
2017-01-08T18:21:47.281Z,18.9
2017-01-08T18:22:57.616Z,18.87
2017-01-08T18:24:08.172Z,18.88
2017-01-08T18:25:18.873Z,18.94
2017-01-08T18:26:29.675Z,18.9
2017-01-08T18:27:41.028Z,18.88
2017-01-08T18:28:51.977Z,18.82
2017-01-08T18:30:03.734Z,18.84
2017-01-08T18:31:15.195Z,18.9
2017-01-08T18:32:27.373Z,18.91
2017-01-08T18:33:39.130Z,18.82
2017-01-08T18:34:50.311Z,18.85
2017-01-08T18:36:01.772Z,18.88
2017-01-08T18:37:12.677Z,18.98
2017-01-08T18:38:24.443Z,18.82
2017-01-08T18:39:34.712Z,18.9
2017-01-08T18:40:45.749Z,18.87
2017-01-08T18:41:56.643Z,18.92
2017-01-08T18:43:07.596Z,18.87
2017-01-08T18:44:18.489Z,18.85
2017-01-08T18:45:29.810Z,18.81
2017-01-08T18:46:40.756Z,18.94
2017-01-08T18:47:52.109Z,18.82
2017-01-08T18:49:03.430Z,18.91
2017-01-08T18:50:14.327Z,18.84
2017-01-08T18:51:25.232Z,18.88
2017-01-08T18:52:37.690Z,18.94
2017-01-08T18:53:49.559Z,18.94
2017-01-08T18:55:00.464Z,18.91
2017-01-08T18:56:12.273Z,18.88
2017-01-08T18:57:24.066Z,18.92
2017-01-08T18:58:35.024Z,18.88
2017-01-08T18:59:46.193Z,18.95
2017-01-08T19:00:56.874Z,18.95
2017-01-08T19:02:07.531Z,18.99
2017-01-08T19:03:18.428Z,18.9
2017-01-08T19:04:29.122Z,18.91
2017-01-08T19:05:40.463Z,18.99
2017-01-08T19:06:51.789Z,18.95
2017-01-08T19:08:02.686Z,18.9
2017-01-08T19:09:13.555Z,18.88
2017-01-08T19:10:24.076Z,18.9
2017-01-08T19:11:34.982Z,18.91
2017-01-08T19:12:45.878Z,18.87
2017-01-08T19:13:56.776Z,18.92
2017-01-08T19:15:08.129Z,18.91
2017-01-08T19:16:18.870Z,18.94
2017-01-08T19:17:30.311Z,18.91
2017-01-08T19:18:41.320Z,18.92
2017-01-08T19:19:52.182Z,18.87
2017-01-08T19:21:02.511Z,18.9
2017-01-08T19:22:13.884Z,18.84
2017-01-08T19:23:24.978Z,18.9
2017-01-08T19:24:35.883Z,18.85
2017-01-08T19:25:47.160Z,18.91
2017-01-08T19:26:58.777Z,18.82
2017-01-08T19:28:09.886Z,18.91
2017-01-08T19:29:20.779Z,18.87
2017-01-08T19:30:31.677Z,18.85
2017-01-08T19:31:43.506Z,18.9
2017-01-08T19:32:54.847Z,18.87
2017-01-08T19:34:05.664Z,18.85
2017-01-08T19:35:17.294Z,18.81
2017-01-08T19:36:28.630Z,18.85
2017-01-08T19:37:39.552Z,18.88
2017-01-08T19:38:50.025Z,18.85
2017-01-08T19:40:00.978Z,18.88
2017-01-08T19:41:11.880Z,18.87
2017-01-08T19:42:23.273Z,18.91
2017-01-08T19:43:34.470Z,18.85
2017-01-08T19:44:45.703Z,18.92
2017-01-08T19:45:57.281Z,18.81
2017-01-08T19:47:07.910Z,18.73
2017-01-08T19:48:18.655Z,18.18
2017-01-08T19:49:29.608Z,17.26
2017-01-08T19:50:40.745Z,16.41
2017-01-08T19:51:52.818Z,15.74
2017-01-08T19:53:03.855Z,15.2
2017-01-08T19:54:16.462Z,14.75
2017-01-08T19:55:28.074Z,14.37
2017-01-08T19:56:39.011Z,14.02
2017-01-08T19:57:49.305Z,13.63
2017-01-08T19:59:00.630Z,13.33
2017-01-08T20:00:11.123Z,12.97
2017-01-08T20:01:22.224Z,12.57
2017-01-08T20:02:32.481Z,12.17
2017-01-08T20:03:43.439Z,12.05
2017-01-08T20:04:54.343Z,11.72
2017-01-08T20:06:05.352Z,11.72
2017-01-08T20:07:16.254Z,11.6
2017-01-08T20:08:26.731Z,11.44
2017-01-08T20:09:38.177Z,11.36
2017-01-08T20:10:49.513Z,11.21
2017-01-08T20:12:00.416Z,11.21
2017-01-08T20:13:11.748Z,11.1
2017-01-08T20:14:22.857Z,10.86
2017-01-08T20:15:34.354Z,10.68
2017-01-08T20:16:45.248Z,10.61
2017-01-08T20:17:56.197Z,10.51
2017-01-08T20:19:07.170Z,10.4
2017-01-08T20:20:18.271Z,10.44
2017-01-08T20:21:29.344Z,10.56
2017-01-08T20:22:40.237Z,10.44
2017-01-08T20:23:51.526Z,10.55
2017-01-08T20:25:03.223Z,10.32
2017-01-08T20:26:13.705Z,10.38
2017-01-08T20:27:24.238Z,10.25
2017-01-08T20:28:34.707Z,10.14
2017-01-08T20:29:46.068Z,10.15
2017-01-08T20:30:56.962Z,9.9
2017-01-08T20:32:07.867Z,9.84
2017-01-08T20:33:19.104Z,9.74
2017-01-08T20:34:29.653Z,9.74
2017-01-08T20:35:40.546Z,9.76
2017-01-08T20:36:52.748Z,9.69
2017-01-08T20:38:02.984Z,9.53
2017-01-08T20:39:14.190Z,9.6
2017-01-08T20:40:25.091Z,9.5
2017-01-08T20:41:35.560Z,9.32
2017-01-08T20:42:47.150Z,9.31
2017-01-08T20:43:58.066Z,9.14
2017-01-08T20:45:09.024Z,8.98
2017-01-08T20:46:19.918Z,8.96
2017-01-08T20:47:31.246Z,9.01
2017-01-08T20:48:42.563Z,9.08
2017-01-08T20:49:53.036Z,9.05
2017-01-08T20:51:04.410Z,9.08
2017-01-08T20:52:15.299Z,8.98
2017-01-08T20:53:26.828Z,8.92
2017-01-08T20:54:38.149Z,8.81
2017-01-08T20:55:49.054Z,8.77
2017-01-08T20:57:00.099Z,8.71
2017-01-08T20:58:11.417Z,8.68
2017-01-08T20:59:21.897Z,8.83
2017-01-08T21:00:33.219Z,8.76
2017-01-08T21:01:44.128Z,8.83
2017-01-08T21:02:55.069Z,8.86
2017-01-08T21:04:05.550Z,9.02
2017-01-08T21:05:16.867Z,9.32
2017-01-08T21:06:27.760Z,9.6
2017-01-08T21:07:39.081Z,9.79
2017-01-08T21:08:49.794Z,9.75
2017-01-08T21:10:00.343Z,9.79
2017-01-08T21:11:11.664Z,9.87
2017-01-08T21:12:22.993Z,9.91
2017-01-08T21:13:34.335Z,10.07
2017-01-08T21:14:45.700Z,10.09
2017-01-08T21:15:57.013Z,10.18
2017-01-08T21:17:08.374Z,10.33
2017-01-08T21:18:19.691Z,10.56
2017-01-08T21:19:31.040Z,10.53
2017-01-08T21:20:42.461Z,10.53
2017-01-08T21:21:53.779Z,10.41
2017-01-08T21:23:04.272Z,10.26
2017-01-08T21:24:15.157Z,10.44
2017-01-08T21:25:26.050Z,10.36
2017-01-08T21:26:37.420Z,10.56
2017-01-08T21:27:48.313Z,10.41
2017-01-08T21:28:59.202Z,10.45
2017-01-08T21:30:10.527Z,10.45
2017-01-08T21:31:21.424Z,10.27
2017-01-08T21:32:32.789Z,10.38
2017-01-08T21:33:43.683Z,10.55
2017-01-08T21:34:55.012Z,10.44
2017-01-08T21:36:06.329Z,10.63
2017-01-08T21:37:17.250Z,10.52
2017-01-08T21:38:28.191Z,10.51
2017-01-08T21:39:39.516Z,10.47
2017-01-08T21:40:50.838Z,10.48
2017-01-08T21:42:01.739Z,10.67
2017-01-08T21:43:13.062Z,10.6
2017-01-08T21:44:24.021Z,10.71
2017-01-08T21:45:34.938Z,10.61
2017-01-08T21:46:45.833Z,10.44
2017-01-08T21:47:56.725Z,10.33
2017-01-08T21:49:08.038Z,10.55
2017-01-08T21:50:18.983Z,10.52
2017-01-08T21:51:30.300Z,10.48
2017-01-08T21:52:41.622Z,10.61
2017-01-08T21:53:52.939Z,10.6
2017-01-08T21:55:03.844Z,10.41
2017-01-08T21:56:14.781Z,10.45
2017-01-08T21:57:26.102Z,10.51
2017-01-08T21:58:37.428Z,10.51
2017-01-08T21:59:48.321Z,10.52
2017-01-08T22:00:58.796Z,10.61
2017-01-08T22:02:09.747Z,10.82
2017-01-08T22:03:20.980Z,11.22
2017-01-08T22:04:32.525Z,11.49
2017-01-08T22:05:43.427Z,11.75
2017-01-08T22:06:54.752Z,12.07
2017-01-08T22:08:05.697Z,12.38
2017-01-08T22:09:16.598Z,12.49
2017-01-08T22:10:27.519Z,12.64
2017-01-08T22:11:38.104Z,12.82
2017-01-08T22:12:48.146Z,13.01
2017-01-08T22:13:59.091Z,13.14
2017-01-08T22:15:10.416Z,13.33
2017-01-08T22:16:20.886Z,13.48
2017-01-08T22:17:31.779Z,13.48
2017-01-08T22:18:43.108Z,13.7
2017-01-08T22:19:54.481Z,13.78
2017-01-08T22:21:05.370Z,13.78
2017-01-08T22:22:16.263Z,13.89
2017-01-08T22:23:27.156Z,13.89
2017-01-08T22:24:38.474Z,13.96
2017-01-08T22:25:49.419Z,13.95
2017-01-08T22:27:00.316Z,13.69
2017-01-08T22:28:11.637Z,13.11
2017-01-08T22:29:22.963Z,12.74
2017-01-08T22:30:33.432Z,12.64
2017-01-08T22:31:45.417Z,12.41
2017-01-08T22:32:57.698Z,12.19
2017-01-08T22:34:09.656Z,12.19
2017-01-08T22:35:21.545Z,12.07
2017-01-08T22:36:34.418Z,12.13
2017-01-08T22:37:46.647Z,12.38
2017-01-08T22:38:58.056Z,12.7
2017-01-08T22:40:09.045Z,12.85
2017-01-08T22:41:19.947Z,13.14
2017-01-08T22:42:31.300Z,13.25
2017-01-08T22:43:42.277Z,13.52
2017-01-08T22:44:53.598Z,13.59
2017-01-08T22:46:04.500Z,13.78
2017-01-08T22:47:15.827Z,13.85
2017-01-08T22:48:27.150Z,14.02
2017-01-08T22:49:38.103Z,14.1
2017-01-08T22:50:48.996Z,14.15
2017-01-08T22:51:59.893Z,14.29
2017-01-08T22:53:10.794Z,14.29
2017-01-08T22:54:22.148Z,14.43
2017-01-08T22:55:33.101Z,14.42
2017-01-08T22:56:44.431Z,14.54
2017-01-08T22:57:55.759Z,14.58
2017-01-08T22:59:06.660Z,14.62
2017-01-08T23:00:17.986Z,14.64
2017-01-08T23:01:29.063Z,14.75
2017-01-08T23:02:39.964Z,14.77
2017-01-08T23:03:51.290Z,14.83
2017-01-08T23:05:02.619Z,14.91
2017-01-08T23:06:13.519Z,14.94
2017-01-08T23:07:24.481Z,14.98
2017-01-08T23:08:35.806Z,15.01
2017-01-08T23:09:46.703Z,14.99
2017-01-08T23:10:58.024Z,15.07
2017-01-08T23:12:09.350Z,15.13
2017-01-08T23:13:20.731Z,15.17
2017-01-08T23:14:32.052Z,15.21
2017-01-08T23:15:43.373Z,15.2
2017-01-08T23:16:54.702Z,15.14
2017-01-08T23:18:05.599Z,15.13
2017-01-08T23:19:16.545Z,15.2
2017-01-08T23:20:27.862Z,15.21
2017-01-08T23:21:38.751Z,15.2
2017-01-08T23:22:50.088Z,15.31
2017-01-08T23:24:00.546Z,15.28
2017-01-08T23:25:11.143Z,15.29
2017-01-08T23:26:22.040Z,15.39
2017-01-08T23:27:32.941Z,15.47
2017-01-08T23:28:44.258Z,15.43
2017-01-08T23:29:54.727Z,15.36
2017-01-08T23:31:05.685Z,15.44
2017-01-08T23:32:16.578Z,15.39
2017-01-08T23:33:27.479Z,15.43
2017-01-08T23:34:38.813Z,15.5
2017-01-08T23:35:49.718Z,15.51
2017-01-08T23:37:01.103Z,15.5
2017-01-08T23:38:12.000Z,15.53
2017-01-08T23:39:22.897Z,15.59
2017-01-08T23:40:34.218Z,15.6
2017-01-08T23:41:45.115Z,15.59
2017-01-08T23:42:56.065Z,15.64
2017-01-08T23:44:07.400Z,15.59
2017-01-08T23:45:18.299Z,15.62
2017-01-08T23:46:29.624Z,15.64
2017-01-08T23:47:40.521Z,15.64
2017-01-08T23:48:51.907Z,15.67
2017-01-08T23:50:03.236Z,15.68
2017-01-08T23:51:14.573Z,15.65
2017-01-08T23:52:25.894Z,15.75
2017-01-08T23:53:37.223Z,15.74
2017-01-08T23:54:47.749Z,15.72
2017-01-08T23:55:58.642Z,15.75
2017-01-08T23:57:09.543Z,15.74
2017-01-08T23:58:20.448Z,15.75
2017-01-08T23:59:31.353Z,15.71
